Terminal Aerodrome Forecast
Issued by NWS

Home | Current Version | Previous Version | Text Only | Print | Product List | Glossary On
Versions: 1 2 3 4 5 6 7 8 9 10 11 12 13 14
000
FTUS44 KBMX 271738
TAFTCL
TAF
KTCL 271738Z 2718/2818 24007KT P6SM FEW027 BKN035
     FM280200 00000KT P6SM SKC
     FM281100 15006KT P6SM BKN025=

USA.gov is the U.S. government's official web portal to all federal, state and local government web resources and services.